Pagina principale
METAR-TAF:

METAR-TAF

Aeroporti :

Şanlıurfa, Turchia

latitudine: 37-27N, longitudine: 38-54E, altezza: 823 m

Osservazione

Il bollettino è stato emesso 43 minuti fa, alle 12:50 UTC
Vento 8 kt da ovest con raffiche fino a 18 kt, variando fra ovest/sud-ovest e nord
Temperature 23°C
Umidità 38%
Pressione 1019 hPa
Visibilità 10 km o più
nessuna nube inferiore a 1500 m e nessun cumulonembo

METAR: LTCS 261250Z 28008G18KT 240V360 CAVOK 23/08 Q1019 RMK RWY22 VRB06KT

Ora: 16:33 (13:33 UTC)

Previsione

Il bollettino è stato emesso 2 ore e 53 minuti fa, alle 10:40 UTC
Previsione valida dal 26 alle 12 UTC al 27 alle 12 UTC
Vento 2 kt da direzioni variabili
Visibilità 10 km o più
nessuna nube inferiore a 1500 m e nessun cumulonembo
Evoluzione graduale
dal 27 alle 09 UTC al 27 alle 11 UTC
Vento 12 kt da sud/sud-est

TAF: LTCS 261040Z 2612/2712 VRB02KT CAVOK BECMG 2709/2711 16012KT

Osservazioni e previsioni meteorologiche di più di 4000 aeroporti (messaggi METAR e TAF).

Le stazioni disponibili sono rappresentate dai dischi gialli e rossi sulla carta.

Puntare il mouse per vedere il nome della stazione.

Clicca sopra per visualizzare le osservazioni e previsioni meteorologiche.

Per cambiare la mappa : fare clic sui pulsanti verdi con una croce nera per ingrandire, il pulsante verde con un trattino per diminuire, o sulla freccia verde per le mappe adiacenti.


METAR-TAF: